createdAt,value
2022-09-24T00:00:25.525Z,22.9
2022-09-24T00:01:27.246Z,23
2022-09-24T00:02:29.715Z,22.9
2022-09-24T00:03:31.814Z,22.9
2022-09-24T00:04:33.497Z,22.9
2022-09-24T00:05:35.142Z,22.9
2022-09-24T00:06:36.960Z,22.9
2022-09-24T00:07:38.677Z,22.9
2022-09-24T00:08:40.385Z,22.9
2022-09-24T00:09:42.002Z,22.9
2022-09-24T00:10:43.575Z,22.9
2022-09-24T00:11:45.232Z,22.9
2022-09-24T00:12:47.455Z,22.9
2022-09-24T00:13:49.042Z,22.9
2022-09-24T00:14:50.772Z,22.9
2022-09-24T00:15:52.424Z,22.9
2022-09-24T00:16:54.529Z,22.9
2022-09-24T00:17:56.175Z,22.9
2022-09-24T00:18:57.820Z,22.9
2022-09-24T00:19:59.436Z,22.9
2022-09-24T00:21:01.090Z,22.9
2022-09-24T00:22:02.963Z,22.9
2022-09-24T00:23:04.574Z,22.9
2022-09-24T00:24:06.290Z,22.9
2022-09-24T00:25:08.418Z,22.9
2022-09-24T00:26:10.033Z,22.9
2022-09-24T00:27:11.673Z,22.8
2022-09-24T00:28:13.309Z,22.9
2022-09-24T00:29:17.651Z,22.8
2022-09-24T00:30:19.297Z,22.8
2022-09-24T00:31:21.126Z,22.8
2022-09-24T00:32:23.202Z,22.8
2022-09-24T00:33:24.758Z,22.8
2022-09-24T00:34:26.307Z,22.8
2022-09-24T00:35:27.968Z,22.8
2022-09-24T00:36:29.491Z,22.8
2022-09-24T00:37:31.224Z,22.8
2022-09-24T00:38:32.896Z,22.8
2022-09-24T00:39:34.591Z,22.8
2022-09-24T00:40:36.255Z,22.8
2022-09-24T00:41:38.216Z,22.8
2022-09-24T00:42:39.843Z,22.8
2022-09-24T00:43:41.528Z,22.8
2022-09-24T00:44:43.146Z,22.8
2022-09-24T00:45:44.747Z,22.8
2022-09-24T00:46:46.385Z,22.7
2022-09-24T00:47:48.394Z,22.7
2022-09-24T00:48:50.102Z,22.7
2022-09-24T00:49:51.830Z,22.7
2022-09-24T00:50:53.460Z,22.7
2022-09-24T00:51:55.030Z,22.7
2022-09-24T00:52:56.932Z,22.6
2022-09-24T00:53:58.747Z,22.6
2022-09-24T00:55:00.627Z,22.6
2022-09-24T00:56:02.219Z,22.6
2022-09-24T00:57:03.761Z,22.6
2022-09-24T00:58:05.309Z,22.6
2022-09-24T00:59:07.020Z,22.6
2022-09-24T01:00:08.611Z,22.6
2022-09-24T01:01:10.506Z,22.6
2022-09-24T01:02:13.013Z,22.6
2022-09-24T01:03:14.916Z,22.6
2022-09-24T01:04:16.517Z,22.6
2022-09-24T01:05:18.227Z,22.6
2022-09-24T01:06:19.953Z,22.6
2022-09-24T01:07:21.707Z,22.5
2022-09-24T01:08:23.655Z,22.5
2022-09-24T01:09:25.211Z,22.5
2022-09-24T01:10:26.843Z,22.5
2022-09-24T01:11:28.655Z,22.5
2022-09-24T01:12:30.287Z,22.5
2022-09-24T01:13:32.141Z,22.5
2022-09-24T01:14:33.734Z,22.5
2022-09-24T01:15:35.288Z,22.5
2022-09-24T01:16:36.991Z,22.5
2022-09-24T01:17:39.078Z,22.5
2022-09-24T01:18:40.879Z,22.5
2022-09-24T01:19:42.677Z,22.5
2022-09-24T01:20:44.318Z,22.5
2022-09-24T01:21:46.065Z,22.5
2022-09-24T01:22:47.784Z,22.5
2022-09-24T01:23:49.749Z,22.5
2022-09-24T01:24:51.372Z,22.5
2022-09-24T01:25:53.013Z,22.5
2022-09-24T01:26:54.595Z,22.5
2022-09-24T01:27:56.203Z,22.5
2022-09-24T01:28:57.987Z,22.5
2022-09-24T01:29:59.842Z,22.4
2022-09-24T01:31:01.623Z,22.5
2022-09-24T01:32:03.747Z,22.4
2022-09-24T01:33:05.292Z,22.4
2022-09-24T01:34:06.972Z,22.4
2022-09-24T01:35:09.069Z,22.4
2022-09-24T01:36:10.710Z,22.4
2022-09-24T01:37:12.326Z,22.4
2022-09-24T01:38:17.007Z,22.4
2022-09-24T01:39:19.011Z,22.4
2022-09-24T01:40:20.817Z,22.4
2022-09-24T01:41:22.751Z,22.4
2022-09-24T01:42:24.298Z,22.4
2022-09-24T01:43:25.964Z,22.4
2022-09-24T01:44:27.655Z,22.4
2022-09-24T01:45:29.577Z,22.4
2022-09-24T01:46:31.489Z,22.4
2022-09-24T01:47:35.049Z,22.4
2022-09-24T01:48:37.033Z,22.4
2022-09-24T01:49:38.679Z,22.4
2022-09-24T01:50:40.289Z,22.4
2022-09-24T01:51:41.971Z,22.4
2022-09-24T01:52:43.653Z,22.4
2022-09-24T01:53:45.285Z,22.4
2022-09-24T01:54:47.133Z,22.4
2022-09-24T01:55:48.730Z,22.4
2022-09-24T01:56:50.414Z,22.4
2022-09-24T01:57:52.007Z,22.4
2022-09-24T01:58:53.611Z,22.4
2022-09-24T01:59:55.304Z,22.4
2022-09-24T02:00:56.971Z,22.4
2022-09-24T02:01:58.873Z,22.4
2022-09-24T02:03:00.987Z,22.3
2022-09-24T02:04:02.703Z,22.3
2022-09-24T02:05:04.380Z,22.3
2022-09-24T02:06:06.003Z,22.3
2022-09-24T02:07:07.749Z,22.3
2022-09-24T02:08:09.498Z,22.3
2022-09-24T02:09:11.156Z,22.3
2022-09-24T02:10:12.990Z,22.2
2022-09-24T02:11:14.617Z,22.3
2022-09-24T02:12:16.337Z,22.2
2022-09-24T02:13:17.979Z,22.3
2022-09-24T02:14:19.509Z,22.3
2022-09-24T02:15:21.280Z,22.2
2022-09-24T02:16:22.909Z,22.3
2022-09-24T02:17:25.187Z,22.2
2022-09-24T02:18:26.918Z,22.3
2022-09-24T02:19:28.557Z,22.2
2022-09-24T02:20:30.106Z,22.3
2022-09-24T02:21:31.830Z,22.3
2022-09-24T02:22:33.542Z,22.3
2022-09-24T02:23:35.322Z,22.3
2022-09-24T02:24:36.972Z,22.3
2022-09-24T02:25:38.900Z,22.3
2022-09-24T02:26:40.540Z,22.3
2022-09-24T02:27:42.292Z,22.3
2022-09-24T02:28:44.067Z,22.3
2022-09-24T02:29:45.701Z,22.3
2022-09-24T02:30:47.417Z,22.2
2022-09-24T02:31:49.161Z,22.3
2022-09-24T02:32:51.231Z,22.3
2022-09-24T02:33:52.838Z,22.2
2022-09-24T02:34:54.382Z,22.2
2022-09-24T02:35:55.978Z,22.2
2022-09-24T02:37:00.439Z,22.2
2022-09-24T02:38:06.081Z,22.2
2022-09-24T02:39:07.925Z,22.2
2022-09-24T02:40:09.771Z,22.2
2022-09-24T02:41:12.052Z,22.2
2022-09-24T02:42:13.697Z,22.2
2022-09-24T02:43:15.387Z,22.2
2022-09-24T02:44:16.943Z,22.2
2022-09-24T02:45:18.618Z,22.2
2022-09-24T02:46:20.390Z,22.1
2022-09-24T02:47:22.531Z,22.1
2022-09-24T02:48:27.125Z,22.1
2022-09-24T02:49:28.746Z,22.2
2022-09-24T02:50:30.287Z,22.1
2022-09-24T02:51:34.802Z,22.1
2022-09-24T02:52:36.422Z,22.1
2022-09-24T02:53:38.147Z,22.1
2022-09-24T02:54:39.912Z,22.1
2022-09-24T02:55:41.611Z,22.1
2022-09-24T02:56:43.430Z,22.1
2022-09-24T02:57:45.156Z,22.1
2022-09-24T02:58:47.008Z,22.1
2022-09-24T02:59:48.669Z,22.1
2022-09-24T03:00:50.349Z,22.1
2022-09-24T03:01:52.076Z,22.1
2022-09-24T03:02:54.769Z,22.2
2022-09-24T03:03:56.966Z,22.2
2022-09-24T03:04:58.694Z,22.2
2022-09-24T03:06:00.366Z,22.2
2022-09-24T03:07:01.901Z,22.1
2022-09-24T03:08:03.458Z,22.1
2022-09-24T03:09:05.094Z,22.1
2022-09-24T03:10:06.808Z,22.1
2022-09-24T03:11:08.699Z,22.1
2022-09-24T03:12:10.672Z,22.1
2022-09-24T03:13:12.285Z,22.1
2022-09-24T03:14:14.142Z,22.1
2022-09-24T03:15:15.917Z,22
2022-09-24T03:16:17.930Z,22.1
2022-09-24T03:17:20.169Z,22.1
2022-09-24T03:18:21.725Z,22.1
2022-09-24T03:19:23.268Z,22.1
2022-09-24T03:20:24.808Z,22.1
2022-09-24T03:21:26.479Z,22.1
2022-09-24T03:22:28.219Z,22.1
2022-09-24T03:23:29.872Z,22.1
2022-09-24T03:24:31.544Z,22
2022-09-24T03:25:33.372Z,22
2022-09-24T03:26:35.124Z,22
2022-09-24T03:27:37.092Z,22.1
2022-09-24T03:28:38.652Z,22.1
2022-09-24T03:29:40.222Z,22.1
2022-09-24T03:30:41.969Z,22.1
2022-09-24T03:31:43.678Z,22.1
2022-09-24T03:32:45.726Z,22.1
2022-09-24T03:33:47.326Z,22
2022-09-24T03:34:49.223Z,22.1
2022-09-24T03:35:50.942Z,22.1
2022-09-24T03:36:52.624Z,22
2022-09-24T03:37:54.201Z,22
2022-09-24T03:38:55.781Z,22
2022-09-24T03:39:57.765Z,22
2022-09-24T03:40:59.653Z,22
2022-09-24T03:42:01.418Z,22
2022-09-24T03:43:03.305Z,22
2022-09-24T03:44:04.987Z,22.1
2022-09-24T03:45:07.107Z,22
2022-09-24T03:46:08.913Z,22
2022-09-24T03:47:11.192Z,22
2022-09-24T03:48:12.759Z,22
2022-09-24T03:49:14.444Z,22
2022-09-24T03:50:16.006Z,22
2022-09-24T03:51:17.643Z,22
2022-09-24T03:52:19.258Z,22
2022-09-24T03:53:20.959Z,22
2022-09-24T03:54:22.587Z,22
2022-09-24T03:55:24.214Z,22
2022-09-24T03:56:25.820Z,22
2022-09-24T03:57:27.410Z,22
2022-09-24T03:58:29.416Z,22
2022-09-24T03:59:31.048Z,21.9
2022-09-24T04:00:35.365Z,21.9
2022-09-24T04:01:42.831Z,21.9
2022-09-24T04:02:44.997Z,21.9
2022-09-24T04:03:47.064Z,21.9
2022-09-24T04:04:48.714Z,22
2022-09-24T04:05:50.465Z,22
2022-09-24T04:06:52.083Z,21.9
2022-09-24T04:07:53.694Z,21.9
2022-09-24T04:08:55.247Z,21.9
2022-09-24T04:09:56.998Z,21.9
2022-09-24T04:10:58.602Z,21.9
2022-09-24T04:12:00.248Z,21.9
2022-09-24T04:13:01.923Z,21.9
2022-09-24T04:14:03.925Z,21.9
2022-09-24T04:15:05.564Z,21.9
2022-09-24T04:16:07.332Z,21.9
2022-09-24T04:17:09.371Z,21.9
2022-09-24T04:18:10.957Z,21.9
2022-09-24T04:19:12.643Z,21.9
2022-09-24T04:20:14.432Z,21.9
2022-09-24T04:21:16.059Z,21.9
2022-09-24T04:22:17.805Z,21.8
2022-09-24T04:23:19.397Z,21.8
2022-09-24T04:24:20.983Z,21.8
2022-09-24T04:25:22.653Z,21.8
2022-09-24T04:26:24.200Z,21.8
2022-09-24T04:27:25.745Z,21.8
2022-09-24T04:28:27.374Z,21.9
2022-09-24T04:29:31.166Z,21.9
2022-09-24T04:30:32.748Z,21.9
2022-09-24T04:31:34.549Z,21.9
2022-09-24T04:32:36.611Z,21.9
2022-09-24T04:33:38.154Z,21.9
2022-09-24T04:34:39.706Z,21.9
2022-09-24T04:35:41.285Z,21.9
2022-09-24T04:36:42.898Z,21.9
2022-09-24T04:37:44.534Z,21.9
2022-09-24T04:38:46.077Z,21.9
2022-09-24T04:39:47.768Z,21.9
2022-09-24T04:40:49.472Z,21.9
2022-09-24T04:41:51.827Z,21.9
2022-09-24T04:42:53.383Z,22
2022-09-24T04:43:55.102Z,22
2022-09-24T04:44:57.043Z,22.1
2022-09-24T04:46:01.575Z,22.1
2022-09-24T04:47:03.843Z,22.1
2022-09-24T04:48:05.569Z,22.1
2022-09-24T04:49:07.277Z,22.1
2022-09-24T04:50:09.440Z,22.1
2022-09-24T04:51:10.998Z,22.1
2022-09-24T04:52:12.531Z,22.1
2022-09-24T04:53:14.085Z,22.1
2022-09-24T04:54:15.989Z,22.2
2022-09-24T04:55:17.619Z,22.2
2022-09-24T04:56:19.326Z,22.2
2022-09-24T04:57:20.954Z,22.2
2022-09-24T04:58:22.496Z,22.2
2022-09-24T04:59:24.168Z,22.3
2022-09-24T05:00:26.087Z,22.3
2022-09-24T05:01:27.714Z,22.3
2022-09-24T05:02:30.005Z,22.4
2022-09-24T05:03:32.521Z,22.4
2022-09-24T05:04:36.948Z,22.4
2022-09-24T05:05:38.543Z,22.4
2022-09-24T05:06:40.189Z,22.5
2022-09-24T05:07:41.876Z,22.5
2022-09-24T05:08:43.466Z,22.5
2022-09-24T05:09:45.118Z,22.6
2022-09-24T05:10:46.820Z,22.6
2022-09-24T05:11:48.449Z,22.6
2022-09-24T05:12:50.116Z,22.6
2022-09-24T05:13:51.677Z,22.7
2022-09-24T05:14:53.281Z,22.7
2022-09-24T05:15:55.216Z,22.7
2022-09-24T05:16:57.104Z,22.7
2022-09-24T05:17:58.640Z,22.7
2022-09-24T05:19:00.305Z,22.8
2022-09-24T05:20:02.045Z,22.8
2022-09-24T05:21:03.788Z,22.8
2022-09-24T05:22:05.521Z,22.8
2022-09-24T05:23:07.152Z,22.9
2022-09-24T05:24:08.804Z,22.9
2022-09-24T05:25:10.356Z,22.9
2022-09-24T05:26:12.027Z,22.9
2022-09-24T05:27:13.612Z,23
2022-09-24T05:28:15.292Z,23
2022-09-24T05:29:16.974Z,23
2022-09-24T05:30:18.796Z,23
2022-09-24T05:31:20.765Z,23
2022-09-24T05:32:22.893Z,23
2022-09-24T05:33:24.613Z,23.1
2022-09-24T05:34:26.292Z,23.1
2022-09-24T05:35:27.839Z,23.1
2022-09-24T05:36:29.414Z,23.1
2022-09-24T05:37:31.090Z,23.1
2022-09-24T05:38:32.761Z,23.1
2022-09-24T05:39:34.564Z,23.1
2022-09-24T05:40:36.415Z,23.2
2022-09-24T05:41:38.413Z,23.2
2022-09-24T05:42:39.993Z,23.2
2022-09-24T05:43:41.613Z,23.2
2022-09-24T05:44:43.204Z,23.3
2022-09-24T05:45:53.757Z,23.3
2022-09-24T05:46:55.713Z,23.3
2022-09-24T05:47:57.808Z,23.3
2022-09-24T05:48:59.416Z,23.4
2022-09-24T05:50:01.146Z,23.4
2022-09-24T05:51:02.874Z,23.4
2022-09-24T05:52:04.458Z,23.4
2022-09-24T05:53:06.098Z,23.4
2022-09-24T05:54:07.714Z,23.4
2022-09-24T05:55:09.440Z,23.5
2022-09-24T05:56:11.142Z,23.5
2022-09-24T05:57:12.752Z,23.5
2022-09-24T05:58:14.313Z,23.5
2022-09-24T05:59:15.924Z,23.5
2022-09-24T06:00:17.518Z,23.5
2022-09-24T06:01:22.067Z,23.6
2022-09-24T06:02:24.415Z,23.6
2022-09-24T06:03:26.444Z,23.6
2022-09-24T06:04:28.691Z,23.6
2022-09-24T06:05:30.313Z,23.6
2022-09-24T06:06:31.862Z,23.7
2022-09-24T06:07:33.468Z,23.6
2022-09-24T06:08:35.039Z,23.7
2022-09-24T06:09:36.646Z,23.7
2022-09-24T06:10:38.270Z,23.7
2022-09-24T06:11:40.930Z,23.7
2022-09-24T06:12:42.923Z,23.7
2022-09-24T06:13:44.475Z,23.8
2022-09-24T06:14:46.193Z,23.8
2022-09-24T06:15:47.879Z,23.8
2022-09-24T06:16:50.039Z,23.8
2022-09-24T06:17:51.870Z,23.8
2022-09-24T06:18:53.479Z,23.9
2022-09-24T06:19:55.132Z,23.9
2022-09-24T06:20:56.856Z,23.9
2022-09-24T06:21:58.446Z,23.9
2022-09-24T06:23:00.051Z,23.9
2022-09-24T06:24:01.841Z,23.9
2022-09-24T06:25:03.474Z,23.9
2022-09-24T06:26:05.077Z,23.9
2022-09-24T06:27:06.621Z,24
2022-09-24T06:28:08.256Z,24
2022-09-24T06:29:10.057Z,24
2022-09-24T06:30:12.386Z,24
2022-09-24T06:31:14.101Z,24
2022-09-24T06:32:16.359Z,24
2022-09-24T06:33:18.320Z,24.1
2022-09-24T06:34:20.013Z,24.1
2022-09-24T06:35:21.721Z,24.1
2022-09-24T06:36:23.464Z,24.1
2022-09-24T06:37:25.114Z,24.1
2022-09-24T06:38:26.739Z,24.1
2022-09-24T06:39:28.257Z,24.1
2022-09-24T06:40:34.031Z,24.1
2022-09-24T06:41:39.843Z,24.2
2022-09-24T06:42:41.436Z,24.2
2022-09-24T06:43:43.083Z,24.2
2022-09-24T06:44:44.623Z,24.2
2022-09-24T06:45:46.286Z,24.2
2022-09-24T06:46:48.260Z,24.2
2022-09-24T06:47:50.430Z,24.2
2022-09-24T06:48:52.423Z,24.2
2022-09-24T06:49:54.147Z,24.3
2022-09-24T06:50:55.733Z,24.3
2022-09-24T06:51:57.705Z,24.3
2022-09-24T06:52:59.375Z,24.3
2022-09-24T06:54:01.202Z,24.3
2022-09-24T06:55:02.959Z,24.3
2022-09-24T06:56:04.856Z,24.3
2022-09-24T06:57:06.669Z,24.3
2022-09-24T06:58:08.234Z,24.3
2022-09-24T06:59:09.881Z,24.3
2022-09-24T07:00:12.066Z,24.4
2022-09-24T07:01:13.747Z,24.4
2022-09-24T07:02:15.796Z,24.4
2022-09-24T07:03:18.002Z,24.4
2022-09-24T07:04:19.826Z,24.4
2022-09-24T07:05:21.431Z,24.4
2022-09-24T07:06:23.094Z,24.4
2022-09-24T07:07:24.714Z,24.4
2022-09-24T07:08:26.406Z,24.4
2022-09-24T07:09:27.973Z,24.4
2022-09-24T07:10:29.726Z,24.5
2022-09-24T07:11:31.315Z,24.5
2022-09-24T07:12:32.939Z,24.5
2022-09-24T07:13:34.576Z,24.5
2022-09-24T07:14:36.213Z,24.5
2022-09-24T07:15:37.850Z,24.5
2022-09-24T07:16:39.779Z,24.5
2022-09-24T07:17:41.333Z,24.5
2022-09-24T07:18:42.903Z,24.5
2022-09-24T07:19:44.742Z,24.5
2022-09-24T07:20:46.317Z,24.5
2022-09-24T07:21:48.018Z,24.5
2022-09-24T07:22:49.602Z,24.5
2022-09-24T07:23:53.999Z,24.5
2022-09-24T07:25:00.323Z,24.6
2022-09-24T07:26:02.038Z,24.6
2022-09-24T07:27:03.739Z,24.6
2022-09-24T07:28:05.287Z,24.6
2022-09-24T07:29:06.829Z,24.6
2022-09-24T07:30:09.047Z,24.6
2022-09-24T07:31:10.821Z,24.6
2022-09-24T07:32:12.824Z,24.6
2022-09-24T07:33:14.381Z,24.6
2022-09-24T07:34:16.122Z,24.6
2022-09-24T07:35:17.984Z,24.6
2022-09-24T07:36:19.664Z,24.6
2022-09-24T07:37:21.244Z,24.6
2022-09-24T07:38:22.945Z,24.6
2022-09-24T07:39:24.477Z,24.6
2022-09-24T07:40:26.125Z,24.6
2022-09-24T07:41:28.205Z,24.6
2022-09-24T07:42:29.841Z,24.6
2022-09-24T07:43:31.477Z,24.6
2022-09-24T07:44:33.144Z,24.7
2022-09-24T07:45:34.808Z,24.7
2022-09-24T07:46:36.539Z,24.7
2022-09-24T07:47:38.652Z,24.7
2022-09-24T07:48:40.197Z,24.7
2022-09-24T07:49:41.926Z,24.7
2022-09-24T07:50:43.997Z,24.7
2022-09-24T07:51:45.561Z,24.7
2022-09-24T07:52:47.120Z,24.7
2022-09-24T07:53:48.674Z,24.7
2022-09-24T07:54:50.367Z,24.7
2022-09-24T07:55:51.969Z,24.8
2022-09-24T07:56:53.640Z,24.8
2022-09-24T07:57:55.258Z,24.8
2022-09-24T07:58:56.940Z,24.8
2022-09-24T07:59:58.618Z,24.8
2022-09-24T08:01:00.286Z,24.8
2022-09-24T08:02:02.019Z,24.8
2022-09-24T08:03:04.228Z,24.7
2022-09-24T08:04:05.876Z,24.7
2022-09-24T08:05:08.270Z,24.8
2022-09-24T08:06:10.216Z,24.7
2022-09-24T08:07:11.776Z,24.8
2022-09-24T08:08:13.401Z,24.8
2022-09-24T08:09:15.126Z,24.8
2022-09-24T08:10:16.801Z,24.8
2022-09-24T08:11:18.544Z,24.8
2022-09-24T08:12:20.088Z,24.8
2022-09-24T08:13:26.825Z,24.8
2022-09-24T08:14:29.723Z,24.8
2022-09-24T08:15:31.794Z,24.8
2022-09-24T08:16:33.444Z,24.8
2022-09-24T08:17:35.042Z,24.8
2022-09-24T08:18:36.837Z,24.8
2022-09-24T08:19:38.476Z,24.8
2022-09-24T08:20:40.096Z,24.8
2022-09-24T08:21:41.994Z,24.8
2022-09-24T08:22:43.642Z,24.8
2022-09-24T08:23:45.214Z,24.8
2022-09-24T08:24:46.735Z,24.8
2022-09-24T08:25:48.337Z,24.8
2022-09-24T08:26:49.930Z,24.8
2022-09-24T08:27:51.617Z,24.8
2022-09-24T08:28:53.273Z,24.8
2022-09-24T08:29:57.828Z,24.8
2022-09-24T08:30:59.463Z,24.8
2022-09-24T08:32:01.488Z,24.8
2022-09-24T08:33:03.284Z,24.8
2022-09-24T08:34:04.950Z,24.8
2022-09-24T08:35:06.972Z,24.8
2022-09-24T08:36:08.907Z,24.8
2022-09-24T08:37:10.872Z,24.8
2022-09-24T08:38:12.444Z,24.8
2022-09-24T08:39:14.001Z,24.8
2022-09-24T08:40:15.698Z,24.8
2022-09-24T08:41:17.823Z,24.8
2022-09-24T08:42:19.442Z,24.8
2022-09-24T08:43:21.082Z,24.8
2022-09-24T08:44:22.761Z,24.8
2022-09-24T08:45:24.362Z,24.8
2022-09-24T08:46:26.152Z,24.8
2022-09-24T08:47:28.163Z,24.8
2022-09-24T08:48:29.779Z,24.8
2022-09-24T08:49:31.346Z,24.7
2022-09-24T08:50:33.061Z,24.6
2022-09-24T08:51:34.628Z,24.7
2022-09-24T08:52:36.526Z,24.6
2022-09-24T08:53:38.223Z,24.6
2022-09-24T08:54:40.032Z,24.5
2022-09-24T08:55:41.633Z,24.4
2022-09-24T08:56:43.236Z,24.4
2022-09-24T08:57:44.826Z,24.4
2022-09-24T08:58:46.416Z,24.4
2022-09-24T08:59:48.050Z,24.4
2022-09-24T09:00:49.893Z,24.4
2022-09-24T09:01:51.669Z,24.4
2022-09-24T09:02:54.268Z,24.4
2022-09-24T09:03:56.517Z,24.4
2022-09-24T09:04:58.213Z,24.4
2022-09-24T09:05:59.825Z,24.5
2022-09-24T09:07:01.632Z,24.5
2022-09-24T09:08:03.466Z,24.5
2022-09-24T09:10:02.976Z,24.6
2022-09-24T09:11:04.556Z,24.6
2022-09-24T09:12:06.173Z,24.6
2022-09-24T09:13:07.801Z,24.6
2022-09-24T09:14:09.541Z,24.6
2022-09-24T09:15:11.193Z,24.6
2022-09-24T09:16:12.859Z,24.6
2022-09-24T09:17:14.972Z,24.6
2022-09-24T09:18:16.561Z,24.6
2022-09-24T09:19:18.112Z,24.6
2022-09-24T09:20:19.652Z,24.6
2022-09-24T09:21:21.514Z,24.6
2022-09-24T09:22:23.183Z,24.6
2022-09-24T09:23:25.123Z,24.7
2022-09-24T09:24:26.806Z,24.7
2022-09-24T09:25:28.528Z,24.7
2022-09-24T09:26:30.301Z,24.7
2022-09-24T09:27:31.991Z,24.7
2022-09-24T09:28:33.632Z,24.7
2022-09-24T09:29:35.253Z,24.7
2022-09-24T09:30:36.816Z,24.7
2022-09-24T09:31:38.657Z,24.7
2022-09-24T09:32:40.701Z,24.7
2022-09-24T09:33:42.261Z,24.7
2022-09-24T09:34:43.852Z,24.7
2022-09-24T09:35:45.492Z,24.7
2022-09-24T09:36:47.178Z,24.7
2022-09-24T09:37:48.982Z,24.7
2022-09-24T09:38:51.018Z,24.7
2022-09-24T09:39:52.686Z,24.7
2022-09-24T09:40:54.467Z,24.7
2022-09-24T09:41:56.634Z,24.7
2022-09-24T09:42:58.228Z,24.8
2022-09-24T09:43:59.867Z,24.7
2022-09-24T09:45:01.428Z,24.8
2022-09-24T09:46:03.364Z,24.8
2022-09-24T09:47:05.472Z,24.8
2022-09-24T09:48:07.221Z,24.8
2022-09-24T09:49:08.871Z,24.8
2022-09-24T09:50:10.601Z,24.8
2022-09-24T09:51:12.304Z,24.8
2022-09-24T09:52:14.029Z,24.8
2022-09-24T09:53:15.627Z,24.8
2022-09-24T09:54:17.504Z,24.8
2022-09-24T09:55:19.113Z,24.8
2022-09-24T09:56:20.797Z,24.8
2022-09-24T09:57:22.515Z,24.8
2022-09-24T09:58:24.214Z,24.8
2022-09-24T09:59:29.536Z,24.8
2022-09-24T10:00:31.627Z,24.8
2022-09-24T10:01:33.524Z,24.9
2022-09-24T10:02:35.460Z,24.9
2022-09-24T10:03:38.034Z,24.9
2022-09-24T10:04:40.204Z,24.9
2022-09-24T10:05:41.884Z,24.9
2022-09-24T10:06:43.449Z,24.9
2022-09-24T10:07:44.992Z,24.9
2022-09-24T10:08:46.807Z,24.9
2022-09-24T10:09:48.739Z,24.9
2022-09-24T10:10:50.368Z,24.9
2022-09-24T10:11:52.042Z,24.9
2022-09-24T10:12:53.771Z,24.9
2022-09-24T10:13:55.310Z,24.9
2022-09-24T10:14:56.907Z,24.9
2022-09-24T10:15:58.681Z,24.9
2022-09-24T10:17:00.621Z,24.9
2022-09-24T10:18:02.161Z,24.9
2022-09-24T10:19:03.709Z,24.9
2022-09-24T10:20:05.434Z,24.9
2022-09-24T10:21:07.034Z,24.9
2022-09-24T10:22:08.768Z,24.9
2022-09-24T10:23:10.386Z,24.9
2022-09-24T10:24:12.229Z,24.9
2022-09-24T10:25:14.232Z,24.9
2022-09-24T10:26:15.897Z,24.9
2022-09-24T10:27:17.478Z,24.9
2022-09-24T10:28:19.126Z,24.9
2022-09-24T10:29:20.708Z,24.9
2022-09-24T10:30:22.411Z,25
2022-09-24T10:31:24.251Z,25
2022-09-24T10:32:26.368Z,25
2022-09-24T10:33:28.217Z,25
2022-09-24T10:34:29.753Z,25
2022-09-24T10:35:31.532Z,25
2022-09-24T10:36:33.245Z,25
2022-09-24T10:37:34.849Z,25
2022-09-24T10:38:36.645Z,25
2022-09-24T10:39:38.314Z,25
2022-09-24T10:40:40.229Z,25
2022-09-24T10:41:42.458Z,25
2022-09-24T10:42:44.225Z,25
2022-09-24T10:43:45.776Z,25
2022-09-24T10:44:52.117Z,25
2022-09-24T10:45:54.563Z,25
2022-09-24T10:46:56.394Z,25
2022-09-24T10:47:58.415Z,25
2022-09-24T10:49:00.083Z,25
2022-09-24T10:50:01.667Z,25.1
2022-09-24T10:51:03.475Z,25.1
2022-09-24T10:52:05.337Z,25.1
2022-09-24T10:53:06.919Z,25.1
2022-09-24T10:54:08.818Z,25.1
2022-09-24T10:55:10.842Z,25.1
2022-09-24T10:56:12.704Z,25.1
2022-09-24T10:57:14.412Z,25.1
2022-09-24T10:58:16.198Z,25.1
2022-09-24T10:59:17.747Z,25.1
2022-09-24T11:00:19.375Z,25.1
2022-09-24T11:01:21.161Z,25.1
2022-09-24T11:02:23.287Z,25.1
2022-09-24T11:03:25.241Z,25.1
2022-09-24T11:04:26.936Z,25.1
2022-09-24T11:05:28.672Z,25.1
2022-09-24T11:06:30.258Z,25.1
2022-09-24T11:07:31.972Z,25.1
2022-09-24T11:08:33.697Z,25.1
2022-09-24T11:09:35.269Z,25.1
2022-09-24T11:10:36.960Z,25.1
2022-09-24T11:11:38.817Z,25.1
2022-09-24T11:12:40.355Z,25.1
2022-09-24T11:13:41.905Z,25.1
2022-09-24T11:14:43.568Z,25.2
2022-09-24T11:15:45.476Z,25.2
2022-09-24T11:16:47.660Z,25.2
2022-09-24T11:17:49.214Z,25.2
2022-09-24T11:18:50.814Z,25.2
2022-09-24T11:19:52.529Z,25.2
2022-09-24T11:20:54.137Z,25.2
2022-09-24T11:21:55.884Z,25.2
2022-09-24T11:22:57.734Z,25.2
2022-09-24T11:23:59.378Z,25.2
2022-09-24T11:25:00.968Z,25.2
2022-09-24T11:26:02.611Z,25.2
2022-09-24T11:27:04.492Z,25.2
2022-09-24T11:28:06.117Z,25.2
2022-09-24T11:29:07.667Z,25.3
2022-09-24T11:30:09.250Z,25.3
2022-09-24T11:31:10.969Z,25.3
2022-09-24T11:32:12.991Z,25.2
2022-09-24T11:33:16.436Z,25.3
2022-09-24T11:34:24.851Z,25.3
2022-09-24T11:35:26.484Z,25.3
2022-09-24T11:36:28.234Z,25.3
2022-09-24T11:37:29.865Z,25.3
2022-09-24T11:38:31.483Z,25.3
2022-09-24T11:39:33.111Z,25.3
2022-09-24T11:40:34.969Z,25.3
2022-09-24T11:41:37.195Z,25.3
2022-09-24T11:42:39.198Z,25.3
2022-09-24T11:43:40.920Z,25.3
2022-09-24T11:44:42.556Z,25.3
2022-09-24T11:45:44.183Z,25.3
2022-09-24T11:46:45.977Z,25.3
2022-09-24T11:47:48.037Z,25.3
2022-09-24T11:48:49.757Z,25.3
2022-09-24T11:49:51.466Z,25.3
2022-09-24T11:50:53.069Z,25.4
2022-09-24T11:51:54.771Z,25.4
2022-09-24T11:52:56.542Z,25.4
2022-09-24T11:53:58.085Z,25.4
2022-09-24T11:54:59.686Z,25.4
2022-09-24T11:56:01.228Z,25.4
2022-09-24T11:57:02.894Z,25.4
2022-09-24T11:58:04.730Z,25.4
2022-09-24T11:59:06.372Z,25.4
2022-09-24T12:00:07.970Z,25.4
2022-09-24T12:01:09.744Z,25.4
2022-09-24T12:02:11.595Z,25.4
2022-09-24T12:03:13.729Z,25.4
2022-09-24T12:04:15.926Z,25.4
2022-09-24T12:05:17.478Z,25.4
2022-09-24T12:06:19.121Z,25.4
2022-09-24T12:07:20.723Z,25.4
2022-09-24T12:08:22.622Z,25.4
2022-09-24T12:09:24.203Z,25.4
2022-09-24T12:10:25.899Z,25.4
2022-09-24T12:11:27.591Z,25.4
2022-09-24T12:12:29.253Z,25.4
2022-09-24T12:13:31.318Z,25.4
2022-09-24T12:14:33.127Z,25.4
2022-09-24T12:15:34.842Z,25.4
2022-09-24T12:16:36.504Z,25.4
2022-09-24T12:17:38.645Z,25.4
2022-09-24T12:18:40.259Z,25.5
2022-09-24T12:19:41.896Z,25.5
2022-09-24T12:20:43.439Z,25.5
2022-09-24T12:21:45.001Z,25.5
2022-09-24T12:22:46.644Z,25.5
2022-09-24T12:23:49.456Z,25.5
2022-09-24T12:24:51.139Z,25.5
2022-09-24T12:25:52.799Z,25.5
2022-09-24T12:26:54.336Z,25.5
2022-09-24T12:27:55.949Z,25.5
2022-09-24T12:28:57.784Z,25.5
2022-09-24T12:29:59.336Z,25.5
2022-09-24T12:31:00.911Z,25.5
2022-09-24T12:32:03.014Z,25.5
2022-09-24T12:33:04.801Z,25.5
2022-09-24T12:34:06.608Z,25.5
2022-09-24T12:35:08.276Z,25.5
2022-09-24T12:36:09.896Z,25.5
2022-09-24T12:37:11.492Z,25.5
2022-09-24T12:38:13.246Z,25.5
2022-09-24T12:39:14.918Z,25.5
2022-09-24T12:40:16.674Z,25.5
2022-09-24T12:41:18.656Z,25.5
2022-09-24T12:42:20.199Z,25.6
2022-09-24T12:43:21.917Z,25.6
2022-09-24T12:44:24.059Z,25.6
2022-09-24T12:45:25.774Z,25.6
2022-09-24T12:46:27.350Z,25.6
2022-09-24T12:47:29.532Z,25.6
2022-09-24T12:48:31.074Z,25.6
2022-09-24T12:49:32.868Z,25.6
2022-09-24T12:50:34.492Z,25.6
2022-09-24T12:51:36.067Z,25.6
2022-09-24T12:52:37.760Z,25.6
2022-09-24T12:53:39.551Z,25.6
2022-09-24T12:54:41.111Z,25.6
2022-09-24T12:55:42.754Z,25.6
2022-09-24T12:56:44.291Z,25.6
2022-09-24T12:57:45.983Z,25.6
2022-09-24T12:58:47.780Z,25.6
2022-09-24T12:59:49.725Z,25.6
2022-09-24T13:00:51.423Z,25.6
2022-09-24T13:01:53.157Z,25.6
2022-09-24T13:02:55.489Z,25.6
2022-09-24T13:03:58.245Z,25.7
2022-09-24T13:04:59.900Z,25.7
2022-09-24T13:06:01.525Z,25.7
2022-09-24T13:07:03.170Z,25.7
2022-09-24T13:08:04.718Z,25.7
2022-09-24T13:09:06.819Z,25.7
2022-09-24T13:10:08.640Z,25.7
2022-09-24T13:11:10.200Z,25.7
2022-09-24T13:12:11.737Z,25.7
2022-09-24T13:13:13.376Z,25.7
2022-09-24T13:14:15.053Z,25.7
2022-09-24T13:15:17.031Z,25.7
2022-09-24T13:16:18.773Z,25.7
2022-09-24T13:17:21.270Z,25.7
2022-09-24T13:18:22.895Z,25.7
2022-09-24T13:19:24.642Z,25.7
2022-09-24T13:20:26.342Z,25.7
2022-09-24T13:21:28.007Z,25.7
2022-09-24T13:22:29.711Z,25.7
2022-09-24T13:23:31.315Z,25.7
2022-09-24T13:24:33.060Z,25.7
2022-09-24T13:25:34.630Z,25.7
2022-09-24T13:26:36.400Z,25.7
2022-09-24T13:27:38.178Z,25.7
2022-09-24T13:28:42.673Z,25.8
2022-09-24T13:29:50.426Z,25.8
2022-09-24T13:30:52.383Z,25.8
2022-09-24T13:31:54.411Z,25.8
2022-09-24T13:32:56.060Z,25.8
2022-09-24T13:33:57.820Z,25.8
2022-09-24T13:34:59.402Z,25.8
2022-09-24T13:36:01.053Z,25.8
2022-09-24T13:37:02.696Z,25.8
2022-09-24T13:38:04.514Z,25.8
2022-09-24T13:39:06.332Z,25.8
2022-09-24T13:40:08.011Z,25.8
2022-09-24T13:41:10.138Z,25.8
2022-09-24T13:42:11.698Z,25.8
2022-09-24T13:43:13.296Z,25.8
2022-09-24T13:44:15.006Z,25.8
2022-09-24T13:45:16.558Z,25.8
2022-09-24T13:46:18.471Z,25.8
2022-09-24T13:47:20.417Z,25.8
2022-09-24T13:48:22.013Z,25.8